Lower Brule, SD (57548)

10:55 AM CST on November 24, 2017 (GMT -0600)
Sunny Slope Weather Station | | Change Station
Active Advisory: Wind Advisory

Elev 1788 ft 43.91 °N, 99.53 °W | Updated 11 seconds ago

Overcast
Overcast
53.4 °F
Feels Like 53.4 °F
N
17.0
Wind Variable Wind from West

Today
High -- | Low -- °F
--% Chance of Precip.
Yesterday
High -- | Low -- °F
Precip. -- in
Pressure 29.62 in
Visibility 10.0 miles
Clouds Overcast 7000 ft
Dew Point 43 °F
Humidity 69%
Rainfall 0.00 in
Snow Depth Not available.
7:45 AM 5:04 PM
Waxing Crescent, 31% visible
METAR K9V9 241635Z AUTO 33010G16KT 10SM OVC070 16/05 A2962 RMK AO2 T01600050
Pressure 29.62 in
Visibility 10.0 miles
Clouds Overcast 7000 ft
Dew Point 43 °F
Humidity 69%
Rainfall 0.00 in
Snow Depth Not available.
7:45 AM 5:04 PM
Waxing Crescent, 31% visible
METAR K9V9 241635Z AUTO 33010G16KT 10SM OVC070 16/05 A2962 RMK AO2 T01600050

Get Your Daily Forecast Email!

Thanks for signing up!

Be on the lookout for a verification email in your inbox.

You'll start receiving severe weather alerts in your inbox..

×

10-Day Weather Forecast

Almanac

Astronomy

Nov. 24, 2017 Rise Set
Actual Time
Civil Twilight
Nautical Twilight
Astronomical Twilight
Moon
Length of Visible Light
Length of Day
Tomorrow will be .
, % of the Moon is Illuminated

Today's Extremes

State Highs State Lows

Community

WunderPhotos

Category 6

Welcome to Category 6. This is the collective home for Weather Underground's featured writeups by Dr. Jeff Masters (right), Bob Henson (left), Chris Burt, and other regular contributors.

Nearby

Air Quality

  Air Quality AQ Index Pollutant
Not available.

Snow Depth

Station Depth Elevation

Earthquake Activity

City Distance Mag. Time & Date
Minimum magnitude displayed is 2.5.

Coastal Water Temperatures

Place Temperature

Stations

Nearby Weather Stations

Station Location Temp. Windchill Dew Point Humidity Wind Precip. Elev Updated Type
                   

Watches & Warnings

Wind Advisory
Issued: 3:00 AM MST Nov. 24, 2017 – National Weather Service

... Wind Advisory remains in effect from 9 am CST /8 am MST/ this
morning to 4 PM CST /3 PM MST/ this afternoon...

* winds... northwest 20 to 35 mph with gusts up to 45 mph.

* Timing... mid morning through mid afternoon today.

* Impacts... gusty winds will blow around unsecured objects. Tree
limbs could be blown down.

Precautionary/preparedness actions...

A Wind Advisory means that sustained winds of 30 mph or higher,
or gusts over 44 mph are expected. Winds this strong can make
driving difficult, especially for high profile vehicles. Use
extra caution.